createdAt,value
2022-09-21T00:00:49.345Z,98794.66
2022-09-21T00:05:51.739Z,98789.91
2022-09-21T00:10:54.178Z,98796.50
2022-09-21T00:15:57.011Z,98799.50
2022-09-21T00:20:59.538Z,98794.94
2022-09-21T00:26:13.775Z,98798.16
2022-09-21T00:31:18.754Z,98793.44
2022-09-21T00:36:24.816Z,98792.38
2022-09-21T00:41:29.303Z,98793.81
2022-09-21T00:46:31.846Z,98800.09
2022-09-21T00:51:35.442Z,98790.97
2022-09-21T00:56:38.638Z,98789.19
2022-09-21T01:01:43.135Z,98791.22
2022-09-21T01:06:47.968Z,98787.00
2022-09-21T01:12:17.561Z,98793.38
2022-09-21T01:17:45.302Z,98788.44
2022-09-21T01:23:11.139Z,98776.28
2022-09-21T01:28:37.438Z,98780.00
2022-09-21T01:33:49.668Z,98796.72
2022-09-21T01:38:59.386Z,98790.66
2022-09-21T01:44:10.598Z,98803.31
2022-09-21T01:49:19.016Z,98795.88
2022-09-21T01:54:29.832Z,98798.81
2022-09-21T01:59:53.162Z,98800.28
2022-09-21T02:04:55.951Z,98797.09
2022-09-21T02:09:59.449Z,98795.09
2022-09-21T02:15:03.125Z,98801.84
2022-09-21T02:20:05.441Z,98804.78
2022-09-21T02:25:15.691Z,98796.47
2022-09-21T02:30:26.788Z,98791.63
2022-09-21T02:35:51.245Z,98785.63
2022-09-21T02:41:01.039Z,98784.81
2022-09-21T02:46:29.759Z,98785.94
2022-09-21T02:51:37.160Z,98789.03
2022-09-21T02:56:41.923Z,98791.44
2022-09-21T03:01:44.961Z,98787.19
2022-09-21T03:06:47.415Z,98785.09
2022-09-21T03:11:50.424Z,98783.22
2022-09-21T03:16:53.537Z,98778.16
2022-09-21T03:21:55.964Z,98784.28
2022-09-21T03:26:58.400Z,98798.81
2022-09-21T03:32:00.870Z,98787.94
2022-09-21T03:37:06.295Z,98801.03
2022-09-21T03:42:10.089Z,98806.59
2022-09-21T03:47:12.526Z,98802.16
2022-09-21T03:52:14.901Z,98804.63
2022-09-21T03:57:17.324Z,98797.03
2022-09-21T04:02:20.053Z,98808.09
2022-09-21T04:07:22.490Z,98814.22
2022-09-21T04:12:24.900Z,98804.91
2022-09-21T04:17:28.278Z,98817.47
2022-09-21T04:22:31.499Z,98815.22
2022-09-21T04:27:34.178Z,98825.03
2022-09-21T04:32:37.064Z,98828.34
2022-09-21T04:37:39.530Z,98826.16
2022-09-21T04:42:41.899Z,98823.19
2022-09-21T04:47:44.303Z,98820.81
2022-09-21T04:52:46.989Z,98826.09
2022-09-21T04:57:49.389Z,98845.56
2022-09-21T05:02:51.775Z,98836.41
2022-09-21T05:07:54.398Z,98845.81
2022-09-21T05:12:56.944Z,98845.84
2022-09-21T05:17:59.325Z,98851.53
2022-09-21T05:23:02.416Z,98850.13
2022-09-21T05:28:05.206Z,98844.47
2022-09-21T05:33:12.649Z,98841.78
2022-09-21T05:38:19.889Z,98846.31
2022-09-21T05:43:22.657Z,98849.94
2022-09-21T05:48:43.167Z,98849.84
2022-09-21T05:54:02.414Z,98854.59
2022-09-21T05:59:13.226Z,98856.59
2022-09-21T06:04:16.560Z,98848.78
2022-09-21T06:09:43.206Z,98864.44
2022-09-21T06:15:05.635Z,98866.38
2022-09-21T06:21:31.360Z,98866.34
2022-09-21T06:26:35.437Z,98876.53
2022-09-21T06:31:37.930Z,98880.88
2022-09-21T06:37:15.483Z,98873.72
2022-09-21T06:42:27.248Z,98873.25
2022-09-21T06:47:29.640Z,98884.16
2022-09-21T06:52:33.171Z,98878.88
2022-09-21T06:57:36.332Z,98883.75
2022-09-21T07:02:42.352Z,98886.50
2022-09-21T07:07:44.766Z,98880.75
2022-09-21T07:12:47.177Z,98877.97
2022-09-21T07:17:52.244Z,98883.31
2022-09-21T07:22:55.003Z,98880.94
2022-09-21T07:28:00.163Z,98878.22
2022-09-21T07:33:03.286Z,98877.69
2022-09-21T07:38:07.946Z,98884.66
2022-09-21T07:43:10.710Z,98882.50
2022-09-21T07:48:13.357Z,98883.47
2022-09-21T07:53:17.136Z,98890.00
2022-09-21T07:58:38.029Z,98886.44
2022-09-21T08:03:40.666Z,98895.25
2022-09-21T08:08:43.227Z,98885.78
2022-09-21T08:13:46.051Z,98881.41
2022-09-21T08:18:48.663Z,98889.75
2022-09-21T08:23:51.163Z,98893.06
2022-09-21T08:28:54.996Z,98891.84
2022-09-21T08:33:57.862Z,98889.91
2022-09-21T08:39:00.388Z,98895.72
2022-09-21T08:44:29.067Z,98886.91
2022-09-21T08:49:35.238Z,98892.88
2022-09-21T08:54:43.023Z,98896.44
2022-09-21T08:59:48.545Z,98883.75
2022-09-21T09:05:23.843Z,98876.19
2022-09-21T09:10:37.017Z,98878.28
2022-09-21T09:15:51.168Z,98876.38
2022-09-21T09:21:05.178Z,98869.03
2022-09-21T09:26:18.101Z,98869.78
2022-09-21T09:31:33.173Z,98860.31
2022-09-21T09:36:57.728Z,98861.19
2022-09-21T09:42:41.497Z,98864.50
2022-09-21T09:48:03.178Z,98858.13
2022-09-21T09:53:07.457Z,98849.50
2022-09-21T09:58:24.385Z,98847.44
2022-09-21T10:03:28.637Z,98842.97
2022-09-21T10:08:44.731Z,98845.50
2022-09-21T10:13:49.283Z,98843.53
2022-09-21T10:18:56.929Z,98842.06
2022-09-21T10:24:04.620Z,98843.47
2022-09-21T10:29:22.058Z,98832.75
2022-09-21T10:34:25.678Z,98824.19
2022-09-21T10:39:33.332Z,98816.31
2022-09-21T10:45:05.166Z,98805.75
2022-09-21T10:50:25.406Z,98811.50
2022-09-21T10:55:30.256Z,98810.97
2022-09-21T11:00:40.737Z,98812.00
2022-09-21T11:05:45.274Z,98804.06
2022-09-21T11:11:07.263Z,98806.72
2022-09-21T11:16:29.797Z,98795.13
2022-09-21T11:21:48.860Z,98791.06
2022-09-21T11:26:59.315Z,98783.38
2022-09-21T11:32:23.104Z,98789.59
2022-09-21T11:37:40.654Z,98785.44
2022-09-21T11:42:55.029Z,98771.53
2022-09-21T11:48:25.158Z,98767.09
2022-09-21T11:53:54.323Z,98760.91
2022-09-21T11:59:07.006Z,98761.75
2022-09-21T12:04:47.673Z,98753.84
2022-09-21T12:10:10.945Z,98757.44
2022-09-21T12:15:42.873Z,98741.75
2022-09-21T12:20:54.632Z,98737.88
2022-09-21T12:25:58.785Z,98740.63
2022-09-21T12:31:12.270Z,98739.31
2022-09-21T12:36:25.521Z,98736.78
2022-09-21T12:41:56.692Z,98734.75
2022-09-21T12:47:12.471Z,98726.06
2022-09-21T12:52:24.578Z,98737.06
2022-09-21T12:58:04.817Z,98720.13
2022-09-21T13:03:37.274Z,98718.91
2022-09-21T13:08:47.025Z,98722.16
2022-09-21T13:13:53.384Z,98723.94
2022-09-21T13:19:00.353Z,98719.22
2022-09-21T13:24:06.223Z,98712.66
2022-09-21T13:29:17.189Z,98715.38
2022-09-21T13:34:19.561Z,98721.25
2022-09-21T13:39:22.029Z,98718.13
2022-09-21T13:44:46.294Z,98706.78
2022-09-21T13:49:55.874Z,98699.09
2022-09-21T13:55:06.281Z,98694.19
2022-09-21T14:00:27.962Z,98696.22
2022-09-21T14:05:41.713Z,98682.88
2022-09-21T14:11:15.649Z,98682.22
2022-09-21T14:16:34.109Z,98682.34
2022-09-21T14:21:37.323Z,98677.31
2022-09-21T14:26:42.630Z,98678.53
2022-09-21T14:31:45.249Z,98665.53
2022-09-21T14:36:51.398Z,98666.53
2022-09-21T14:41:56.579Z,98671.63
2022-09-21T14:47:54.384Z,98667.50
2022-09-21T14:53:09.386Z,98674.84
2022-09-21T14:58:34.852Z,98663.78
2022-09-21T15:03:43.340Z,98650.59
2022-09-21T15:09:35.843Z,98648.72
2022-09-21T15:14:43.515Z,98645.97
2022-09-21T15:19:47.173Z,98637.19
2022-09-21T15:24:59.239Z,98639.00
2022-09-21T15:30:04.863Z,98623.75
2022-09-21T15:35:07.878Z,98628.06
2022-09-21T15:40:25.121Z,98640.25
2022-09-21T15:45:46.912Z,98634.75
2022-09-21T15:51:13.784Z,98642.28
2022-09-21T15:56:22.974Z,98639.88
2022-09-21T16:01:26.091Z,98636.50
2022-09-21T16:06:41.623Z,98637.59
2022-09-21T16:11:44.011Z,98638.06
2022-09-21T16:17:15.148Z,98647.09
2022-09-21T16:22:29.572Z,98646.63
2022-09-21T16:27:33.149Z,98649.22
2022-09-21T16:32:35.805Z,98656.72
2022-09-21T16:37:38.187Z,98655.03
2022-09-21T16:42:41.540Z,98659.63
2022-09-21T16:47:44.069Z,98657.91
2022-09-21T16:52:47.051Z,98662.44
2022-09-21T16:57:49.443Z,98660.16
2022-09-21T17:02:52.102Z,98668.13
2022-09-21T17:07:56.856Z,98655.19
2022-09-21T17:12:59.907Z,98662.63
2022-09-21T17:18:03.573Z,98663.81
2022-09-21T17:23:06.281Z,98666.41
2022-09-21T17:28:35.117Z,98674.09
2022-09-21T17:33:37.535Z,98674.59
2022-09-21T17:38:40.475Z,98673.06
2022-09-21T17:43:53.684Z,98672.81
2022-09-21T17:48:56.554Z,98676.81
2022-09-21T17:53:59.323Z,98686.59
2022-09-21T17:59:04.862Z,98691.19
2022-09-21T18:04:10.912Z,98695.69
2022-09-21T18:21:03.561Z,98703.81
2022-09-21T18:26:10.782Z,98706.47
2022-09-21T18:31:31.530Z,98709.47
2022-09-21T18:37:03.745Z,98715.34
2022-09-21T18:42:38.139Z,98714.84
2022-09-21T18:47:50.876Z,98718.25
2022-09-21T18:52:53.474Z,98724.06
2022-09-21T18:57:57.615Z,98729.19
2022-09-21T19:03:18.859Z,98728.00
2022-09-21T19:08:45.545Z,98732.78
2022-09-21T19:13:57.496Z,98729.44
2022-09-21T19:19:16.800Z,98720.31
2022-09-21T19:24:35.860Z,98718.91
2022-09-21T19:30:02.164Z,98720.75
2022-09-21T19:35:19.348Z,98723.47
2022-09-21T19:40:26.358Z,98732.97
2022-09-21T19:45:34.835Z,98727.44
2022-09-21T19:50:53.257Z,98722.47
2022-09-21T19:56:17.229Z,98733.34
2022-09-21T20:01:21.780Z,98727.56
2022-09-21T20:06:55.526Z,98731.47
2022-09-21T20:12:16.860Z,98736.56
2022-09-21T20:17:33.763Z,98732.06
2022-09-21T20:22:41.123Z,98719.41
2022-09-21T20:27:49.299Z,98720.47
2022-09-21T20:32:58.424Z,98719.06
2022-09-21T20:38:03.027Z,98724.53
2022-09-21T20:43:05.600Z,98731.06
2022-09-21T20:48:14.772Z,98729.72
2022-09-21T20:53:19.082Z,98735.00
2022-09-21T20:58:22.062Z,98746.09
2022-09-21T21:03:24.437Z,98742.03
2022-09-21T21:08:27.096Z,98744.50
2022-09-21T21:13:30.326Z,98747.47
2022-09-21T21:18:32.727Z,98744.47
2022-09-21T21:23:55.101Z,98757.91
2022-09-21T21:28:57.460Z,98756.06
2022-09-21T21:34:01.071Z,98747.81
2022-09-21T21:39:03.545Z,98749.13
2022-09-21T21:44:05.949Z,98742.31
2022-09-21T21:49:08.533Z,98745.88
2022-09-21T21:54:11.795Z,98738.63
2022-09-21T21:59:17.794Z,98746.50
2022-09-21T22:04:23.439Z,98746.56
2022-09-21T22:09:29.501Z,98745.50
2022-09-21T22:14:31.931Z,98740.50
2022-09-21T22:19:34.296Z,98733.91
2022-09-21T22:24:36.758Z,98728.53
2022-09-21T22:29:39.606Z,98734.66
2022-09-21T22:34:41.974Z,98732.38
2022-09-21T22:39:44.317Z,98735.66
2022-09-21T22:44:46.640Z,98736.13
2022-09-21T22:49:48.984Z,98733.47
2022-09-21T22:54:51.407Z,98736.91
2022-09-21T22:59:53.740Z,98733.13
2022-09-21T23:04:56.191Z,98729.13
2022-09-21T23:09:58.553Z,98729.72
2022-09-21T23:15:00.965Z,98716.09
2022-09-21T23:20:03.516Z,98710.84
2022-09-21T23:25:06.640Z,98716.13
2022-09-21T23:30:09.758Z,98715.28
2022-09-21T23:35:12.172Z,98708.53
2022-09-21T23:40:14.634Z,98716.41
2022-09-21T23:45:17.010Z,98708.97
2022-09-21T23:50:19.561Z,98705.72
2022-09-21T23:55:21.889Z,98709.88
